createdAt,value
2017-08-02T00:00:16.183Z,0
2017-08-02T00:01:16.159Z,0
2017-08-02T00:02:15.856Z,0
2017-08-02T00:03:15.825Z,0
2017-08-02T00:04:16.122Z,0
2017-08-02T00:05:16.292Z,0
2017-08-02T00:06:16.313Z,0
2017-08-02T00:07:16.050Z,0
2017-08-02T00:08:15.709Z,0
2017-08-02T00:09:16.248Z,0
2017-08-02T00:10:16.027Z,0
2017-08-02T00:11:15.957Z,0
2017-08-02T00:12:15.938Z,0
2017-08-02T00:13:15.917Z,0
2017-08-02T00:14:15.894Z,0
2017-08-02T00:15:15.928Z,0
2017-08-02T00:16:15.898Z,0
2017-08-02T00:17:15.887Z,0
2017-08-02T00:18:15.819Z,0
2017-08-02T00:19:16.052Z,0
2017-08-02T00:20:15.788Z,0
2017-08-02T00:21:15.763Z,0
2017-08-02T00:22:15.440Z,0
2017-08-02T00:23:15.725Z,0
2017-08-02T00:24:15.399Z,0
2017-08-02T00:25:15.733Z,0
2017-08-02T00:26:15.647Z,0
2017-08-02T00:27:15.632Z,0
2017-08-02T00:28:15.635Z,0
2017-08-02T00:29:15.292Z,0
2017-08-02T00:30:30.182Z,0
2017-08-02T00:31:15.553Z,0
2017-08-02T00:32:15.232Z,0
2017-08-02T00:33:15.255Z,0
2017-08-02T00:34:15.190Z,0
2017-08-02T00:35:15.465Z,0
2017-08-02T00:36:15.459Z,0
2017-08-02T00:37:14.830Z,0
2017-08-02T00:38:15.110Z,0
2017-08-02T00:39:15.383Z,0
2017-08-02T00:40:15.074Z,0
2017-08-02T00:41:15.351Z,0
2017-08-02T00:42:15.321Z,0
2017-08-02T00:43:15.310Z,0
2017-08-02T00:44:15.295Z,0
2017-08-02T00:45:15.270Z,0
2017-08-02T00:46:15.253Z,0
2017-08-02T00:47:15.232Z,0
2017-08-02T00:48:15.414Z,0
2017-08-02T00:49:15.438Z,0
2017-08-02T00:50:15.165Z,0
2017-08-02T00:51:14.897Z,0
2017-08-02T00:52:15.122Z,0
2017-08-02T00:53:14.804Z,0
2017-08-02T00:54:15.087Z,0
2017-08-02T00:55:15.110Z,0
2017-08-02T00:56:15.099Z,0
2017-08-02T00:57:15.027Z,0
2017-08-02T00:58:15.003Z,0
2017-08-02T00:59:14.678Z,0
2017-08-02T01:00:14.962Z,0
2017-08-02T01:01:14.660Z,0
2017-08-02T01:02:14.935Z,0
2017-08-02T01:03:14.597Z,0
2017-08-02T01:04:14.881Z,0
2017-08-02T01:05:14.866Z,0
2017-08-02T01:06:14.831Z,0
2017-08-02T01:07:14.868Z,0
2017-08-02T01:08:14.794Z,0
2017-08-02T01:09:14.783Z,0
2017-08-02T01:10:14.763Z,0
2017-08-02T01:11:14.426Z,0
2017-08-02T01:12:14.986Z,0
2017-08-02T01:13:14.688Z,0
2017-08-02T01:14:14.669Z,0
2017-08-02T01:15:14.362Z,0
2017-08-02T01:16:14.630Z,0
2017-08-02T01:17:14.616Z,0
2017-08-02T01:18:14.303Z,0
2017-08-02T01:19:14.576Z,0
2017-08-02T01:20:14.579Z,0
2017-08-02T01:21:14.525Z,0
2017-08-02T01:22:14.509Z,0
2017-08-02T01:23:14.190Z,0
2017-08-02T01:24:14.477Z,0
2017-08-02T01:25:14.139Z,0
2017-08-02T01:26:14.428Z,0
2017-08-02T01:27:29.029Z,0
2017-08-02T01:28:14.387Z,0
2017-08-02T01:29:14.374Z,0
2017-08-02T01:30:14.347Z,0
2017-08-02T01:31:14.314Z,0
2017-08-02T01:32:14.311Z,0
2017-08-02T01:33:14.282Z,0
2017-08-02T01:34:13.711Z,0
2017-08-02T01:35:14.258Z,0
2017-08-02T01:36:14.228Z,0
2017-08-02T01:37:14.204Z,0
2017-08-02T01:38:14.181Z,0
2017-08-02T01:39:14.158Z,0
2017-08-02T01:40:14.142Z,0
2017-08-02T01:41:14.176Z,0
2017-08-02T01:42:14.102Z,0
2017-08-02T01:43:14.125Z,0
2017-08-02T01:44:14.060Z,0
2017-08-02T01:45:13.739Z,0
2017-08-02T01:46:13.725Z,0
2017-08-02T01:47:14.049Z,0
2017-08-02T01:48:13.973Z,0
2017-08-02T01:49:13.964Z,0
2017-08-02T01:50:13.941Z,0
2017-08-02T01:51:13.922Z,0
2017-08-02T01:52:13.598Z,0
2017-08-02T01:53:13.875Z,0
2017-08-02T01:54:13.878Z,0
2017-08-02T01:55:13.848Z,0
2017-08-02T01:56:13.817Z,0
2017-08-02T01:57:13.802Z,0
2017-08-02T01:58:13.469Z,0
2017-08-02T01:59:13.752Z,0
2017-08-02T02:00:13.729Z,0
2017-08-02T02:01:13.406Z,0
2017-08-02T02:02:13.686Z,0
2017-08-02T02:03:13.377Z,0
2017-08-02T02:04:13.652Z,0
2017-08-02T02:05:13.627Z,0
2017-08-02T02:06:13.605Z,0
2017-08-02T02:07:13.590Z,0
2017-08-02T02:08:13.581Z,0
2017-08-02T02:09:13.596Z,0
2017-08-02T02:10:13.529Z,0
2017-08-02T02:11:13.513Z,0
2017-08-02T02:12:13.488Z,0
2017-08-02T02:13:13.717Z,0
2017-08-02T02:14:13.454Z,0
2017-08-02T02:15:13.426Z,0
2017-08-02T02:16:13.105Z,0
2017-08-02T02:17:13.404Z,0
2017-08-02T02:18:13.363Z,0
2017-08-02T02:19:13.350Z,0
2017-08-02T02:20:13.022Z,0
2017-08-02T02:21:13.351Z,0
2017-08-02T02:22:12.988Z,0
2017-08-02T02:23:13.259Z,0
2017-08-02T02:24:12.934Z,0
2017-08-02T02:25:13.218Z,0
2017-08-02T02:26:13.200Z,0
2017-08-02T02:27:13.193Z,0
2017-08-02T02:28:13.159Z,0
2017-08-02T02:29:13.135Z,0
2017-08-02T02:30:12.814Z,0
2017-08-02T02:31:12.801Z,0
2017-08-02T02:32:12.780Z,0
2017-08-02T02:33:13.061Z,0
2017-08-02T02:34:13.038Z,0
2017-08-02T02:35:13.016Z,0
2017-08-02T02:36:12.698Z,0
2017-08-02T02:37:12.977Z,0
2017-08-02T02:38:12.951Z,0
2017-08-02T02:39:12.946Z,0
2017-08-02T02:40:12.912Z,0
2017-08-02T02:41:12.955Z,0
2017-08-02T02:42:12.894Z,0
2017-08-02T02:43:12.861Z,0
2017-08-02T02:44:12.829Z,0
2017-08-02T02:45:12.811Z,0
2017-08-02T02:46:13.047Z,0
2017-08-02T02:47:12.778Z,0
2017-08-02T02:48:12.766Z,0
2017-08-02T02:49:12.731Z,0
2017-08-02T02:50:12.719Z,0
2017-08-02T02:51:12.695Z,0
2017-08-02T02:52:12.372Z,0
2017-08-02T02:53:12.656Z,0
2017-08-02T02:54:12.643Z,0
2017-08-02T02:55:12.322Z,0
2017-08-02T02:56:12.587Z,0
2017-08-02T02:57:12.572Z,0
2017-08-02T02:58:12.544Z,0
2017-08-02T02:59:12.526Z,0
2017-08-02T03:00:12.518Z,0
2017-08-02T03:01:12.479Z,0
2017-08-02T03:02:12.461Z,0
2017-08-02T03:03:12.442Z,0
2017-08-02T03:04:12.421Z,0
2017-08-02T03:05:12.402Z,0
2017-08-02T03:06:12.075Z,0
2017-08-02T03:07:12.369Z,0
2017-08-02T03:08:12.342Z,0
2017-08-02T03:09:12.438Z,0
2017-08-02T03:10:12.304Z,0
2017-08-02T03:11:12.333Z,0
2017-08-02T03:12:12.269Z,0
2017-08-02T03:13:12.236Z,0
2017-08-02T03:14:12.215Z,0
2017-08-02T03:15:12.218Z,0
2017-08-02T03:16:11.879Z,0
2017-08-02T03:17:12.207Z,0
2017-08-02T03:18:12.134Z,4
2017-08-02T03:19:12.107Z,4
2017-08-02T03:20:12.115Z,4
2017-08-02T03:21:12.134Z,0
2017-08-02T03:22:12.058Z,0
2017-08-02T03:23:12.044Z,4
2017-08-02T03:24:12.005Z,4
2017-08-02T03:25:11.699Z,8
2017-08-02T03:26:11.984Z,4
2017-08-02T03:27:11.953Z,8
2017-08-02T03:28:11.942Z,8
2017-08-02T03:29:11.899Z,8
2017-08-02T03:30:11.895Z,12
2017-08-02T03:31:11.887Z,12
2017-08-02T03:32:11.837Z,16
2017-08-02T03:33:11.838Z,16
2017-08-02T03:34:11.812Z,20
2017-08-02T03:35:11.994Z,24
2017-08-02T03:36:11.966Z,28
2017-08-02T03:37:11.847Z,32
2017-08-02T03:38:12.032Z,36
2017-08-02T03:39:11.707Z,40
2017-08-02T03:40:11.689Z,48
2017-08-02T03:41:11.820Z,56
2017-08-02T03:42:11.652Z,64
2017-08-02T03:43:11.630Z,72
2017-08-02T03:44:11.604Z,76
2017-08-02T03:45:11.585Z,80
2017-08-02T03:46:11.256Z,84
2017-08-02T03:47:11.553Z,88
2017-08-02T03:48:11.529Z,100
2017-08-02T03:49:11.505Z,104
2017-08-02T03:50:11.182Z,116
2017-08-02T03:51:11.456Z,124
2017-08-02T03:52:11.488Z,140
2017-08-02T03:53:11.428Z,148
2017-08-02T03:54:11.406Z,164
2017-08-02T03:55:11.391Z,176
2017-08-02T03:56:11.358Z,192
2017-08-02T03:57:11.333Z,204
2017-08-02T03:58:11.318Z,224
2017-08-02T03:59:11.296Z,240
2017-08-02T04:00:11.033Z,260
2017-08-02T04:01:10.958Z,276
2017-08-02T04:02:11.230Z,296
2017-08-02T04:03:10.912Z,320
2017-08-02T04:04:10.892Z,344
2017-08-02T04:05:11.177Z,376
2017-08-02T04:06:10.859Z,404
2017-08-02T04:07:11.126Z,436
2017-08-02T04:08:11.161Z,476
2017-08-02T04:09:11.090Z,516
2017-08-02T04:10:11.071Z,548
2017-08-02T04:11:11.052Z,588
2017-08-02T04:12:11.036Z,628
2017-08-02T04:13:10.712Z,672
2017-08-02T04:14:10.984Z,716
2017-08-02T04:15:10.985Z,768
2017-08-02T04:16:10.957Z,836
2017-08-02T04:17:10.927Z,924
2017-08-02T04:18:10.909Z,1008
2017-08-02T04:19:10.986Z,1096
2017-08-02T04:20:10.859Z,1168
2017-08-02T04:21:10.853Z,1220
2017-08-02T04:22:10.868Z,1256
2017-08-02T04:23:10.795Z,1296
2017-08-02T04:24:10.814Z,1368
2017-08-02T04:25:10.766Z,1432
2017-08-02T04:26:10.702Z,1472
2017-08-02T04:27:10.732Z,1560
2017-08-02T04:28:10.710Z,1688
2017-08-02T04:29:10.698Z,1840
2017-08-02T04:30:10.660Z,1976
2017-08-02T04:31:10.639Z,2072
2017-08-02T04:32:10.638Z,2120
2017-08-02T04:33:10.611Z,2152
2017-08-02T04:34:10.572Z,2200
2017-08-02T04:35:10.561Z,2212
2017-08-02T04:36:10.550Z,2208
2017-08-02T04:37:10.219Z,2208
2017-08-02T04:38:10.493Z,2176
2017-08-02T04:39:10.482Z,2148
2017-08-02T04:40:10.458Z,2184
2017-08-02T04:41:10.186Z,2332
2017-08-02T04:42:10.666Z,2548
2017-08-02T04:43:10.398Z,2628
2017-08-02T04:44:10.374Z,2724
2017-08-02T04:45:10.362Z,2848
2017-08-02T04:46:10.083Z,2904
2017-08-02T04:47:10.320Z,2988
2017-08-02T04:48:10.296Z,3116
2017-08-02T04:49:10.269Z,3360
2017-08-02T04:50:10.014Z,3652
2017-08-02T04:51:10.241Z,3800
2017-08-02T04:52:10.209Z,3856
2017-08-02T04:53:10.199Z,3740
2017-08-02T04:54:10.181Z,4224
2017-08-02T04:55:09.851Z,4520
2017-08-02T04:56:10.150Z,4400
2017-08-02T04:57:10.139Z,3804
2017-08-02T04:58:10.093Z,3340
2017-08-02T04:59:10.070Z,3104
2017-08-02T05:00:10.052Z,2988
2017-08-02T05:01:10.045Z,2900
2017-08-02T05:02:10.031Z,2832
2017-08-02T05:03:10.040Z,2672
2017-08-02T05:04:09.679Z,2524
2017-08-02T05:05:09.653Z,2480
2017-08-02T05:06:09.930Z,2428
2017-08-02T05:07:09.611Z,2340
2017-08-02T05:08:09.889Z,2324
2017-08-02T05:09:09.905Z,2352
2017-08-02T05:10:09.850Z,2460
2017-08-02T05:11:09.828Z,2708
2017-08-02T05:12:09.811Z,3020
2017-08-02T05:13:09.509Z,3356
2017-08-02T05:14:09.827Z,3560
2017-08-02T05:15:09.757Z,3716
2017-08-02T05:16:09.725Z,3948
2017-08-02T05:17:09.737Z,4236
2017-08-02T05:18:09.738Z,4468
2017-08-02T05:19:09.677Z,4596
2017-08-02T05:20:09.708Z,4652
2017-08-02T05:21:09.628Z,4652
2017-08-02T05:22:09.305Z,4708
2017-08-02T05:23:09.594Z,4924
2017-08-02T05:24:09.267Z,5060
2017-08-02T05:25:09.559Z,4960
2017-08-02T05:26:09.529Z,4692
2017-08-02T05:27:09.255Z,4372
2017-08-02T05:28:09.486Z,4240
2017-08-02T05:29:09.470Z,4240
2017-08-02T05:30:08.855Z,4332
2017-08-02T05:31:09.433Z,4608
2017-08-02T05:32:09.410Z,5220
2017-08-02T05:33:09.085Z,5948
2017-08-02T05:34:09.375Z,6492
2017-08-02T05:35:09.350Z,6816
2017-08-02T05:36:09.026Z,7016
2017-08-02T05:37:09.309Z,7144
2017-08-02T05:38:09.290Z,6984
2017-08-02T05:39:08.972Z,6672
2017-08-02T05:40:09.306Z,6272
2017-08-02T05:41:09.234Z,5948
2017-08-02T05:42:09.213Z,5928
2017-08-02T05:43:09.187Z,6228
2017-08-02T05:44:09.158Z,6592
2017-08-02T05:45:09.157Z,7044
2017-08-02T05:46:09.134Z,7544
2017-08-02T05:47:08.807Z,7756
2017-08-02T05:48:09.091Z,7668
2017-08-02T05:49:09.076Z,7704
2017-08-02T05:50:08.748Z,7812
2017-08-02T05:51:08.731Z,7936
2017-08-02T05:52:08.926Z,8024
2017-08-02T05:53:09.037Z,7804
2017-08-02T05:54:08.970Z,7636
2017-08-02T05:55:08.944Z,7544
2017-08-02T05:56:08.930Z,7520
2017-08-02T05:57:08.921Z,7344
2017-08-02T05:58:08.891Z,6640
2017-08-02T05:59:08.874Z,6024
2017-08-02T06:00:08.865Z,5792
2017-08-02T06:01:08.838Z,5732
2017-08-02T06:02:08.823Z,6508
2017-08-02T06:03:08.797Z,7540
2017-08-02T06:04:08.770Z,7656
2017-08-02T06:05:08.457Z,7756
2017-08-02T06:06:08.738Z,8240
2017-08-02T06:07:08.709Z,8720
2017-08-02T06:08:08.707Z,9120
2017-08-02T06:09:08.672Z,8984
2017-08-02T06:10:08.665Z,8824
2017-08-02T06:11:08.648Z,8380
2017-08-02T06:12:08.620Z,7880
2017-08-02T06:13:08.595Z,7784
2017-08-02T06:14:08.578Z,8096
2017-08-02T06:15:08.561Z,8456
2017-08-02T06:16:08.564Z,8544
2017-08-02T06:17:08.526Z,8632
2017-08-02T06:18:08.513Z,7412
2017-08-02T06:19:08.176Z,5428
2017-08-02T06:20:08.460Z,4312
2017-08-02T06:21:08.152Z,4104
2017-08-02T06:22:08.434Z,4140
2017-08-02T06:23:08.408Z,4764
2017-08-02T06:24:08.440Z,5436
2017-08-02T06:25:08.370Z,5640
2017-08-02T06:26:08.357Z,5716
2017-08-02T06:27:08.384Z,6308
2017-08-02T06:28:08.329Z,7908
2017-08-02T06:29:08.295Z,9888
2017-08-02T06:30:08.271Z,9236
2017-08-02T06:31:07.991Z,7880
2017-08-02T06:32:08.234Z,7208
2017-08-02T06:33:08.213Z,6980
2017-08-02T06:34:08.196Z,7028
2017-08-02T06:35:08.174Z,7440
2017-08-02T06:36:08.165Z,7944
2017-08-02T06:37:08.147Z,8684
2017-08-02T06:38:08.112Z,9776
2017-08-02T06:39:08.099Z,11108
2017-08-02T06:40:08.079Z,12484
2017-08-02T06:41:08.161Z,12968
2017-08-02T06:42:08.240Z,17632
2017-08-02T06:43:22.629Z,13196
2017-08-02T06:44:07.747Z,14708
2017-08-02T06:45:08.066Z,15016
2017-08-02T06:46:07.975Z,19104
2017-08-02T06:47:07.963Z,14068
2017-08-02T06:48:07.929Z,8480
2017-08-02T06:49:07.970Z,8496
2017-08-02T06:50:07.996Z,8956
2017-08-02T06:51:07.924Z,8948
2017-08-02T06:52:07.869Z,8508
2017-08-02T06:53:07.840Z,8468
2017-08-02T06:54:07.819Z,8540
2017-08-02T06:55:07.506Z,8368
2017-08-02T06:56:07.778Z,9076
2017-08-02T06:57:07.775Z,9576
2017-08-02T06:58:07.753Z,9504
2017-08-02T06:59:07.728Z,9544
2017-08-02T07:00:07.414Z,10580
2017-08-02T07:01:07.689Z,11852
2017-08-02T07:02:07.374Z,12716
2017-08-02T07:03:07.353Z,13228
2017-08-02T07:04:07.639Z,12640
2017-08-02T07:05:07.668Z,12300
2017-08-02T07:06:07.601Z,12660
2017-08-02T07:07:07.581Z,12632
2017-08-02T07:08:07.564Z,11124
2017-08-02T07:09:07.594Z,10148
2017-08-02T07:10:07.520Z,9912
2017-08-02T07:11:07.513Z,9284
2017-08-02T07:12:07.495Z,8768
2017-08-02T07:13:07.512Z,9172
2017-08-02T07:14:07.458Z,9624
2017-08-02T07:15:07.433Z,10008
2017-08-02T07:16:07.423Z,10676
2017-08-02T07:17:07.400Z,11336
2017-08-02T07:18:07.376Z,12888
2017-08-02T07:19:07.370Z,13532
2017-08-02T07:20:07.347Z,14824
2017-08-02T07:21:07.329Z,17760
2017-08-02T07:22:07.305Z,16080
2017-08-02T07:23:07.289Z,14664
2017-08-02T07:24:07.277Z,10356
2017-08-02T07:25:07.256Z,9664
2017-08-02T07:26:06.934Z,11416
2017-08-02T07:27:07.217Z,13704
2017-08-02T07:28:07.204Z,14484
2017-08-02T07:29:07.191Z,15312
2017-08-02T07:30:07.176Z,18752
2017-08-02T07:31:07.198Z,26848
2017-08-02T07:32:07.435Z,29568
2017-08-02T07:33:07.113Z,40704
2017-08-02T07:34:07.096Z,43168
2017-08-02T07:35:07.074Z,30176
2017-08-02T07:36:07.066Z,23360
2017-08-02T07:37:07.049Z,22592
2017-08-02T07:38:06.927Z,22016
2017-08-02T07:39:07.016Z,21920
2017-08-02T07:40:06.749Z,21728
2017-08-02T07:41:06.982Z,20576
2017-08-02T07:42:06.975Z,19168
2017-08-02T07:43:06.968Z,18368
2017-08-02T07:44:06.937Z,17952
2017-08-02T07:45:06.912Z,18784
2017-08-02T07:46:06.599Z,19840
2017-08-02T07:47:06.894Z,20416
2017-08-02T07:48:06.870Z,21344
2017-08-02T07:49:06.852Z,21120
2017-08-02T07:50:06.839Z,20864
2017-08-02T07:51:06.517Z,20256
2017-08-02T07:52:06.798Z,22464
2017-08-02T07:53:06.885Z,21312
2017-08-02T07:54:06.777Z,22144
2017-08-02T07:55:06.764Z,23328
2017-08-02T07:56:06.453Z,24800
2017-08-02T07:57:06.725Z,26208
2017-08-02T07:58:06.704Z,33056
2017-08-02T07:59:06.700Z,30944
2017-08-02T08:00:06.686Z,23424
2017-08-02T08:01:06.669Z,20800
2017-08-02T08:02:06.650Z,18784
2017-08-02T08:03:06.632Z,19328
2017-08-02T08:04:06.629Z,19520
2017-08-02T08:05:06.611Z,18272
2017-08-02T08:06:06.290Z,15832
2017-08-02T08:07:06.563Z,15516
2017-08-02T08:08:06.555Z,16832
2017-08-02T08:09:06.542Z,18752
2017-08-02T08:10:05.927Z,19872
2017-08-02T08:11:06.516Z,19808
2017-08-02T08:12:06.497Z,18432
2017-08-02T08:13:06.170Z,15872
2017-08-02T08:14:06.476Z,14468
2017-08-02T08:15:06.463Z,13648
2017-08-02T08:16:06.440Z,13388
2017-08-02T08:17:06.414Z,13996
2017-08-02T08:18:06.469Z,16672
2017-08-02T08:19:06.384Z,21088
2017-08-02T08:20:06.418Z,26272
2017-08-02T08:21:06.373Z,25216
2017-08-02T08:22:06.339Z,24640
2017-08-02T08:23:06.323Z,26176
2017-08-02T08:24:06.011Z,26592
2017-08-02T08:25:06.009Z,25248
2017-08-02T08:26:06.271Z,23040
2017-08-02T08:27:06.022Z,22016
2017-08-02T08:28:06.247Z,21952
2017-08-02T08:29:05.935Z,22208
2017-08-02T08:30:06.218Z,21472
2017-08-02T08:31:05.919Z,24096
2017-08-02T08:32:05.890Z,29216
2017-08-02T08:33:05.875Z,30656
2017-08-02T08:34:06.161Z,31008
2017-08-02T08:35:06.196Z,34656
2017-08-02T08:36:06.129Z,31552
2017-08-02T08:37:06.160Z,29312
2017-08-02T08:38:05.797Z,26816
2017-08-02T08:39:06.098Z,30368
2017-08-02T08:40:06.075Z,32224
2017-08-02T08:41:06.104Z,31712
2017-08-02T08:42:06.044Z,33536
2017-08-02T08:43:06.021Z,29632
2017-08-02T08:44:05.411Z,21632
2017-08-02T08:45:05.997Z,17376
2017-08-02T08:46:05.984Z,17632
2017-08-02T08:47:05.966Z,24512
2017-08-02T08:48:06.030Z,27328
2017-08-02T08:49:05.937Z,20608
2017-08-02T08:50:05.971Z,11100
2017-08-02T08:51:05.921Z,11052
2017-08-02T08:52:05.911Z,13588
2017-08-02T08:53:05.889Z,12648
2017-08-02T08:54:05.889Z,16704
2017-08-02T08:55:05.559Z,15616
2017-08-02T08:56:05.856Z,13560
2017-08-02T08:57:05.829Z,11212
2017-08-02T08:58:05.814Z,11408
2017-08-02T08:59:05.497Z,10928
2017-08-02T09:00:05.805Z,9228
2017-08-02T09:01:05.469Z,12408
2017-08-02T09:02:05.753Z,15956
2017-08-02T09:03:05.747Z,17184
2017-08-02T09:04:05.741Z,14692
2017-08-02T09:05:05.712Z,14760
2017-08-02T09:06:05.702Z,15504
2017-08-02T09:07:05.742Z,17600
2017-08-02T09:08:05.718Z,17440
2017-08-02T09:09:05.714Z,16832
2017-08-02T09:10:05.653Z,17152
2017-08-02T09:11:05.321Z,18848
2017-08-02T09:12:05.605Z,18016
2017-08-02T09:13:05.592Z,17440
2017-08-02T09:14:05.576Z,12812
2017-08-02T09:15:05.256Z,14064
2017-08-02T09:16:05.244Z,13716
2017-08-02T09:17:05.243Z,19680
2017-08-02T09:18:05.521Z,29216
2017-08-02T09:19:05.501Z,25344
2017-08-02T09:20:05.484Z,23616
2017-08-02T09:21:05.713Z,24544
2017-08-02T09:22:05.453Z,16040
2017-08-02T09:23:05.199Z,14316
2017-08-02T09:24:05.427Z,12784
2017-08-02T09:25:05.406Z,11252
2017-08-02T09:26:05.390Z,9376
2017-08-02T09:27:05.385Z,8308
2017-08-02T09:28:04.758Z,11052
2017-08-02T09:29:05.352Z,14480
2017-08-02T09:30:05.634Z,16864
2017-08-02T09:31:05.331Z,19488
2017-08-02T09:32:05.003Z,22528
2017-08-02T09:33:05.286Z,24928
2017-08-02T09:34:05.265Z,27680
2017-08-02T09:35:04.966Z,38080
2017-08-02T09:36:05.249Z,41536
2017-08-02T09:37:05.223Z,38560
2017-08-02T09:38:05.473Z,46784
2017-08-02T09:39:05.203Z,56576
2017-08-02T09:40:05.178Z,55232
2017-08-02T09:41:05.181Z,34176
2017-08-02T09:42:04.546Z,54720
2017-08-02T09:43:05.136Z,17088
2017-08-02T09:44:05.123Z,8968
2017-08-02T09:45:05.117Z,6432
2017-08-02T09:46:05.100Z,6060
2017-08-02T09:47:05.095Z,7536
2017-08-02T09:48:05.080Z,12000
2017-08-02T09:49:05.055Z,19840
2017-08-02T09:50:05.054Z,13216
2017-08-02T09:51:04.729Z,14504
2017-08-02T09:52:05.015Z,33056
2017-08-02T09:53:04.695Z,31328
2017-08-02T09:54:04.993Z,29856
2017-08-02T09:55:04.991Z,37408
2017-08-02T09:56:04.966Z,48800
2017-08-02T09:57:04.973Z,53760
2017-08-02T09:58:04.627Z,47392
2017-08-02T09:59:04.618Z,60736
2017-08-02T10:00:04.946Z,69600
2017-08-02T10:01:04.974Z,60032
2017-08-02T10:02:04.881Z,58784
2017-08-02T10:03:04.854Z,62240
2017-08-02T10:04:04.851Z,61440
2017-08-02T10:05:04.847Z,49696
2017-08-02T10:06:04.925Z,70400
2017-08-02T10:07:04.521Z,48224
2017-08-02T10:08:04.812Z,63360
2017-08-02T10:09:04.506Z,43264
2017-08-02T10:10:04.859Z,57760
2017-08-02T10:11:04.770Z,47680
2017-08-02T10:12:04.768Z,29824
2017-08-02T10:13:04.759Z,22976
2017-08-02T10:14:04.752Z,22432
2017-08-02T10:15:04.745Z,24704
2017-08-02T10:16:04.744Z,24160
2017-08-02T10:17:04.717Z,76128
2017-08-02T10:19:04.699Z,61888
2017-08-02T10:20:04.723Z,40832
2017-08-02T10:21:04.673Z,22944
2017-08-02T10:22:04.362Z,20320
2017-08-02T10:23:04.357Z,23360
2017-08-02T10:24:04.648Z,58336
2017-08-02T10:25:04.631Z,22336
2017-08-02T10:26:04.316Z,26304
2017-08-02T10:27:04.610Z,47552
2017-08-02T10:28:04.613Z,77376
2017-08-02T10:29:04.598Z,70496
2017-08-02T10:30:04.585Z,38144
2017-08-02T10:31:04.314Z,55744
2017-08-02T10:32:04.470Z,57216
2017-08-02T10:33:04.249Z,31456
2017-08-02T10:34:04.542Z,50432
2017-08-02T10:35:04.829Z,45856
2017-08-02T10:36:04.574Z,44768
2017-08-02T10:37:04.218Z,38912
2017-08-02T10:38:04.197Z,30560
2017-08-02T10:39:04.192Z,21728
2017-08-02T10:40:04.476Z,18208
2017-08-02T10:41:04.166Z,16544
2017-08-02T10:42:04.516Z,17024
2017-08-02T10:43:04.448Z,19424
2017-08-02T10:44:04.438Z,20288
2017-08-02T10:45:04.428Z,20992
2017-08-02T10:46:04.420Z,23104
2017-08-02T10:47:04.398Z,25408
2017-08-02T10:48:04.389Z,25728
2017-08-02T10:49:04.388Z,23040
2017-08-02T10:50:04.375Z,20160
2017-08-02T10:51:04.369Z,17856
2017-08-02T10:52:04.343Z,17376
2017-08-02T10:53:04.381Z,18176
2017-08-02T10:54:04.310Z,19104
2017-08-02T10:55:04.314Z,20352
2017-08-02T10:56:04.283Z,21440
2017-08-02T10:57:04.284Z,24128
2017-08-02T10:58:04.259Z,21664
2017-08-02T11:00:04.234Z,18176
2017-08-02T11:01:04.278Z,20608
2017-08-02T11:02:04.200Z,35808
2017-08-02T11:03:04.210Z,43072
2017-08-02T11:04:04.185Z,36896
2017-08-02T11:05:04.209Z,37600
2017-08-02T11:06:04.414Z,40096
2017-08-02T11:07:04.146Z,51776
2017-08-02T11:08:04.135Z,48768
2017-08-02T11:09:03.869Z,25248
2017-08-02T11:10:04.106Z,23104
2017-08-02T11:11:04.096Z,23776
2017-08-02T11:13:04.065Z,40416
2017-08-02T11:14:04.050Z,23328
2017-08-02T11:15:04.044Z,25344
2017-08-02T11:16:04.025Z,24704
2017-08-02T11:17:04.025Z,22304
2017-08-02T11:18:03.990Z,21536
2017-08-02T11:19:04.004Z,21536
2017-08-02T11:20:04.024Z,25376
2017-08-02T11:21:03.956Z,24704
2017-08-02T11:22:03.949Z,26912
2017-08-02T11:23:03.931Z,24608
2017-08-02T11:24:03.933Z,26624
2017-08-02T11:25:03.899Z,26592
2017-08-02T11:26:03.889Z,24832
2017-08-02T11:27:03.882Z,25056
2017-08-02T11:28:03.861Z,24448
2017-08-02T11:29:04.165Z,22240
2017-08-02T11:30:03.840Z,23008
2017-08-02T11:31:03.821Z,24448
2017-08-02T11:32:03.810Z,23872
2017-08-02T11:33:03.807Z,22240
2017-08-02T11:34:03.784Z,23648
2017-08-02T11:35:03.783Z,25888
2017-08-02T11:36:03.758Z,27488
2017-08-02T11:37:03.760Z,26976
2017-08-02T11:38:03.676Z,25728
2017-08-02T11:39:03.717Z,24576
2017-08-02T11:40:03.740Z,24416
2017-08-02T11:41:03.695Z,24544
2017-08-02T11:42:03.874Z,23264
2017-08-02T11:43:03.659Z,20192
2017-08-02T11:44:03.107Z,16348
2017-08-02T11:45:03.358Z,12484
2017-08-02T11:46:18.228Z,11612
2017-08-02T11:47:03.603Z,11252
2017-08-02T11:48:03.820Z,11836
2017-08-02T11:49:03.811Z,12356
2017-08-02T11:50:03.632Z,13344
2017-08-02T11:51:03.246Z,15576
2017-08-02T11:52:03.543Z,17568
2017-08-02T11:53:03.234Z,17984
2017-08-02T11:54:03.709Z,18496
2017-08-02T11:55:03.501Z,19552
2017-08-02T11:56:03.474Z,21216
2017-08-02T11:57:03.459Z,21888
2017-08-02T11:58:03.454Z,21280
2017-08-02T11:59:03.478Z,19136
2017-08-02T12:00:03.123Z,17952
2017-08-02T12:01:02.810Z,17472
2017-08-02T12:02:03.443Z,16016
2017-08-02T12:03:03.619Z,17440
2017-08-02T12:04:03.376Z,17120
2017-08-02T12:05:03.345Z,17344
2017-08-02T12:06:03.034Z,18464
2017-08-02T12:07:03.316Z,20960
2017-08-02T12:08:03.158Z,21024
2017-08-02T12:09:03.044Z,20800
2017-08-02T12:10:03.276Z,19776
2017-08-02T12:11:17.874Z,19168
2017-08-02T12:12:03.264Z,19648
2017-08-02T12:13:03.443Z,20704
2017-08-02T12:14:03.226Z,20576
2017-08-02T12:15:02.801Z,20192
2017-08-02T12:16:03.198Z,20672
2017-08-02T12:17:03.174Z,20224
2017-08-02T12:18:03.233Z,18496
2017-08-02T12:19:17.457Z,18112
2017-08-02T12:20:03.192Z,18048
2017-08-02T12:21:03.168Z,18784
2017-08-02T12:22:03.107Z,19296
2017-08-02T12:23:03.166Z,19744
2017-08-02T12:24:04.130Z,19968
2017-08-02T12:25:02.771Z,18976
2017-08-02T12:26:03.054Z,17536
2017-08-02T12:27:03.106Z,16104
2017-08-02T12:28:02.772Z,14156
2017-08-02T12:29:03.058Z,12776
2017-08-02T12:30:02.999Z,12316
2017-08-02T12:31:02.728Z,10932
2017-08-02T12:32:02.965Z,9568
2017-08-02T12:33:03.063Z,10060
2017-08-02T12:34:02.984Z,12556
2017-08-02T12:35:02.930Z,16056
2017-08-02T12:36:02.916Z,16172
2017-08-02T12:37:02.646Z,14028
2017-08-02T12:38:02.573Z,11940
2017-08-02T12:39:02.870Z,11256
2017-08-02T12:40:02.604Z,10916
2017-08-02T12:41:02.829Z,9436
2017-08-02T12:42:02.870Z,8288
2017-08-02T12:43:02.806Z,8140
2017-08-02T12:44:03.038Z,8692
2017-08-02T12:45:02.479Z,8624
2017-08-02T12:46:02.765Z,8620
2017-08-02T12:47:02.802Z,8528
2017-08-02T12:48:02.883Z,9640
2017-08-02T12:49:02.416Z,10332
2017-08-02T12:50:02.756Z,10620
2017-08-02T12:51:02.733Z,11428
2017-08-02T12:52:02.672Z,12220
2017-08-02T12:53:02.911Z,12660
2017-08-02T12:54:02.649Z,14280
2017-08-02T12:55:02.626Z,14932
2017-08-02T12:56:02.609Z,15428
2017-08-02T12:57:02.605Z,14596
2017-08-02T12:58:02.627Z,12000
2017-08-02T12:59:02.565Z,9368
2017-08-02T13:00:02.543Z,8996
2017-08-02T13:01:17.139Z,10560
2017-08-02T13:02:02.760Z,11936
2017-08-02T13:03:02.498Z,12024
2017-08-02T13:04:02.192Z,12452
2017-08-02T13:05:02.516Z,13460
2017-08-02T13:06:02.466Z,14480
2017-08-02T13:07:02.438Z,14528
2017-08-02T13:08:02.475Z,15192
2017-08-02T13:09:02.665Z,17408
2017-08-02T13:10:02.446Z,18656
2017-08-02T13:11:02.385Z,16008
2017-08-02T13:12:02.358Z,14036
2017-08-02T13:13:02.055Z,14056
2017-08-02T13:14:02.342Z,14420
2017-08-02T13:15:02.318Z,14552
2017-08-02T13:16:02.009Z,13436
2017-08-02T13:17:02.288Z,14272
2017-08-02T13:18:16.900Z,14352
2017-08-02T13:19:02.260Z,12756
2017-08-02T13:20:02.308Z,11376
2017-08-02T13:21:02.233Z,11384
2017-08-02T13:22:02.220Z,12100
2017-08-02T13:23:02.410Z,12268
2017-08-02T13:24:02.194Z,12604
2017-08-02T13:25:01.878Z,13192
2017-08-02T13:26:02.147Z,13572
2017-08-02T13:27:02.166Z,13668
2017-08-02T13:28:02.124Z,14196
2017-08-02T13:29:01.908Z,16100
2017-08-02T13:30:02.100Z,16412
2017-08-02T13:31:02.137Z,16380
2017-08-02T13:32:02.064Z,16140